Time;durP1;ratioP1;P1;durP2;ratioP2;P2;SDS_P1;SDS_P2;PMS_P1;PMS_P2;Temp;Humidity;BMP_temperature;BMP_pressure;BME280_temperature;BME280_humidity;BME280_pressure;Samples;Min_cycle;Max_cycle;Signal;HPM_P1;HPM_P2
2022/03/03 00:02:32;;;;;;;10.27;7.20;;;;;;;-1.55;79.26;99659.44;8333880;28;20759;-73
2022/03/03 00:06:35;;;;;;;8.93;6.22;;;;;;;-1.61;78.70;99664.25;8313860;28;20081;-73
2022/03/03 00:10:36;;;;;;;7.60;6.00;;;;;;;-1.63;78.05;99660.72;8330887;28;20056;-73
2022/03/03 00:14:38;;;;;;;9.10;6.15;;;;;;;-1.69;78.27;99661.31;8315699;28;20052;-73
2022/03/03 00:18:40;;;;;;;10.63;6.27;;;;;;;-1.70;78.99;99666.34;8326821;28;20152;-73
2022/03/03 00:22:41;;;;;;;12.63;6.13;;;;;;;-1.70;79.09;99661.25;8329513;28;20049;-73
2022/03/03 00:26:42;;;;;;;9.07;6.20;;;;;;;-1.74;78.62;99657.69;8331557;28;20140;-72
2022/03/03 00:30:44;;;;;;;11.10;6.23;;;;;;;-1.77;78.55;99657.53;8309853;28;20417;-73
2022/03/03 00:34:46;;;;;;;10.33;6.70;;;;;;;-1.79;78.83;99659.16;8707153;22;20463;-74
2022/03/03 00:38:48;;;;;;;8.93;5.97;;;;;;;-1.84;79.03;99661.44;8381734;28;20064;-74
2022/03/03 00:42:49;;;;;;;11.00;6.20;;;;;;;-1.91;78.10;99656.88;8384187;28;20095;-74
2022/03/03 00:46:51;;;;;;;12.57;6.67;;;;;;;-1.95;78.69;99657.53;8366146;28;20159;-74
2022/03/03 00:50:52;;;;;;;9.97;6.07;;;;;;;-1.98;79.46;99659.03;8384082;28;20626;-74
2022/03/03 00:54:55;;;;;;;11.83;6.83;;;;;;;-2.03;79.02;99656.25;8383906;28;20095;-73
2022/03/03 00:58:57;;;;;;;8.03;6.03;;;;;;;-2.03;79.63;99650.28;8375822;28;20418;-73
2022/03/03 01:02:59;;;;;;;10.87;6.10;;;;;;;-2.07;79.18;99644.19;8352020;28;20048;-73
2022/03/03 01:07:01;;;;;;;12.33;6.50;;;;;;;-2.14;80.21;99647.25;8364235;28;20049;-76
2022/03/03 01:11:04;;;;;;;9.80;6.37;;;;;;;-2.17;80.06;99645.38;8364134;28;20060;-76
2022/03/03 01:15:09;;;;;;;10.03;6.83;;;;;;;-2.20;79.47;99641.81;8361874;28;20052;-75
2022/03/03 01:19:11;;;;;;;9.70;5.93;;;;;;;-2.22;79.43;99636.66;8366446;28;20092;-75
2022/03/03 01:23:12;;;;;;;8.57;5.90;;;;;;;-2.25;80.20;99633.97;8366268;28;20899;-74
2022/03/03 01:27:14;;;;;;;10.90;7.13;;;;;;;-2.30;80.12;99632.00;8366419;28;20053;-74
2022/03/03 01:31:15;;;;;;;11.40;5.70;;;;;;;-2.30;80.65;99632.00;8367158;28;20155;-74
2022/03/03 01:35:17;;;;;;;7.40;5.13;;;;;;;-2.30;81.13;99634.56;8369548;28;20407;-73
2022/03/03 01:39:18;;;;;;;7.93;5.67;;;;;;;-2.39;80.77;99623.91;8371556;28;20048;-74
2022/03/03 01:43:20;;;;;;;10.57;6.17;;;;;;;-2.42;80.87;99631.38;8372700;28;20083;-74
2022/03/03 01:47:24;;;;;;;10.47;6.27;;;;;;;-2.45;80.46;99627.03;8368552;28;20143;-74
2022/03/03 01:51:26;;;;;;;12.30;6.30;;;;;;;-2.49;79.95;99618.38;8384816;28;20053;-74
2022/03/03 01:55:27;;;;;;;8.23;6.17;;;;;;;-2.54;80.02;99618.91;8357924;28;20658;-74
2022/03/03 01:59:30;;;;;;;9.80;6.53;;;;;;;-2.56;80.82;99621.38;8369761;28;20148;-74
2022/03/03 02:03:32;;;;;;;;;;;;;;;-2.59;81.16;99618.69;8365857;28;20151;-74
2022/03/03 02:07:35;;;;;;;10.37;5.77;;;;;;;-2.61;81.33;99611.78;8371465;28;20351;-74
2022/03/03 02:11:37;;;;;;;9.80;6.20;;;;;;;-2.64;80.85;99598.94;8370519;28;20080;-74
2022/03/03 02:15:38;;;;;;;9.48;6.43;;;;;;;-2.65;81.31;99604.81;8383105;28;20058;-74
2022/03/03 02:19:40;;;;;;;12.10;6.00;;;;;;;-2.66;81.56;99600.53;8377398;28;20059;-75
2022/03/03 02:23:43;;;;;;;11.45;6.22;;;;;;;-2.70;80.64;99602.00;8374115;28;20108;-74
2022/03/03 02:27:45;;;;;;;11.88;6.70;;;;;;;-2.75;80.64;99599.25;8372970;28;20086;-74
2022/03/03 02:31:48;;;;;;;11.87;6.30;;;;;;;-2.77;80.51;99600.84;8367148;28;20175;-74
2022/03/03 02:35:50;;;;;;;11.13;6.83;;;;;;;-2.77;80.97;99595.75;8372998;28;20076;-74
2022/03/03 02:39:51;;;;;;;8.57;6.13;;;;;;;-2.77;80.58;99595.75;8356256;28;20086;-74
2022/03/03 02:43:56;;;;;;;11.10;6.17;;;;;;;-2.79;81.24;99594.81;8356502;28;20060;-73
2022/03/03 02:47:58;;;;;;;8.07;5.90;;;;;;;-2.80;81.74;99594.72;8366110;28;20114;-74
2022/03/03 02:51:59;;;;;;;9.13;6.63;;;;;;;-2.84;80.77;99588.63;8369029;28;20048;-74
2022/03/03 02:56:05;;;;;;;9.17;6.37;;;;;;;-2.87;81.36;99582.47;8370459;28;20051;-73
2022/03/03 03:00:08;;;;;;;12.00;6.53;;;;;;;-2.93;80.64;99582.19;8366307;28;20076;-74
2022/03/03 03:04:09;;;;;;;10.15;6.80;;;;;;;-2.96;81.25;99576.94;8373561;28;20896;-73
2022/03/03 03:08:14;;;;;;;11.90;7.17;;;;;;;-3.03;81.50;99570.69;8372328;28;20056;-73
2022/03/03 03:12:16;;;;;;;7.83;5.03;;;;;;;-3.05;82.40;99570.59;8375600;28;20052;-73
2022/03/03 03:16:17;;;;;;;10.97;6.47;;;;;;;-3.02;82.58;99569.03;8371055;28;20352;-73
2022/03/03 03:20:19;;;;;;;10.23;6.40;;;;;;;-3.10;82.31;99566.94;8370567;28;20056;-73
2022/03/03 03:24:21;;;;;;;13.27;6.43;;;;;;;-3.06;82.78;99567.97;8379346;28;20071;-73
2022/03/03 03:28:23;;;;;;;14.77;6.77;;;;;;;-3.09;82.42;99558.53;8372405;28;20135;-73
2022/03/03 03:32:25;;;;;;;13.27;7.90;;;;;;;-3.07;82.95;99554.38;8372332;28;20780;-73
2022/03/03 03:36:26;;;;;;;11.80;6.73;;;;;;;-3.08;82.05;99546.69;8372168;28;20139;-73
2022/03/03 03:40:28;;;;;;;11.57;7.33;;;;;;;-3.16;81.86;99542.91;8373389;28;20053;-73
2022/03/03 03:44:30;;;;;;;12.43;6.93;;;;;;;-3.20;81.77;99543.53;8372379;28;20169;-73
2022/03/03 03:48:31;;;;;;;14.93;7.23;;;;;;;-3.20;81.59;99538.47;8353148;28;20064;-73
2022/03/03 03:52:34;;;;;;;11.18;7.20;;;;;;;-3.22;81.33;99538.38;8357849;28;20114;-73
2022/03/03 03:56:35;;;;;;;10.70;7.10;;;;;;;-3.25;81.59;99537.31;8374792;28;20045;-73
2022/03/03 04:00:37;;;;;;;10.70;6.53;;;;;;;-3.26;81.36;99536.47;8368592;28;20084;-73
2022/03/03 04:04:39;;;;;;;15.25;8.20;;;;;;;-3.28;82.20;99549.88;8368827;28;20049;-73
2022/03/03 04:08:40;;;;;;;8.97;5.13;;;;;;;-3.30;82.78;99536.22;8368037;28;20053;-73
2022/03/03 04:12:42;;;;;;;14.53;6.43;;;;;;;-3.30;82.08;99534.56;8363848;28;20289;-73
2022/03/03 04:16:43;;;;;;;10.87;6.90;;;;;;;-3.32;82.06;99542.91;8361268;28;20175;-73
2022/03/03 04:20:45;;;;;;;12.03;6.47;;;;;;;-3.36;82.10;99540.19;8351870;28;20068;-74
2022/03/03 04:24:47;;;;;;;9.63;4.95;;;;;;;-3.37;82.38;99532.50;8354997;28;20059;-73
2022/03/03 04:28:48;;;;;;;14.63;6.90;;;;;;;-3.40;81.98;99534.88;8363222;28;20056;-74
2022/03/03 04:32:51;;;;;;;11.17;6.73;;;;;;;-3.41;82.18;99530.56;8348687;28;20052;-73
2022/03/03 04:36:52;;;;;;;;;;;;;;;-3.44;81.91;99526.22;8362946;28;20530;-73
2022/03/03 04:40:54;;;;;;;8.63;5.80;;;;;;;-3.48;81.82;99513.28;8364610;28;20555;-73
2022/03/03 04:44:55;;;;;;;10.03;6.67;;;;;;;-3.49;82.37;99521.69;8365273;28;20167;-73
2022/03/03 04:48:59;;;;;;;10.40;5.90;;;;;;;-3.52;82.39;99521.53;8361611;28;20152;-73
2022/03/03 04:53:01;;;;;;;15.50;6.27;;;;;;;-3.56;82.86;99517.97;8350998;28;20048;-73
2022/03/03 04:57:03;;;;;;;7.80;4.97;;;;;;;-3.56;83.61;99520.50;8363148;28;20045;-73
2022/03/03 05:01:04;;;;;;;9.15;6.40;;;;;;;-3.55;83.56;99519.72;8340162;28;20409;-73
2022/03/03 05:05:06;;;;;;;12.50;6.67;;;;;;;-3.52;83.42;99526.63;8368549;28;20150;-73
2022/03/03 05:09:08;;;;;;;13.40;6.60;;;;;;;-3.54;83.33;99515.50;8363271;28;21029;-73
2022/03/03 05:13:09;;;;;;;10.03;6.33;;;;;;;-3.60;82.69;99518.56;8362645;28;20049;-73
2022/03/03 05:17:11;;;;;;;12.23;6.13;;;;;;;-3.61;82.70;99518.50;8357796;28;20053;-73
2022/03/03 05:21:12;;;;;;;9.70;5.87;;;;;;;-3.65;82.46;99510.72;8364514;28;21650;-73
2022/03/03 05:25:15;;;;;;;13.90;7.47;;;;;;;-3.67;82.43;99509.78;8362360;28;20051;-73
2022/03/03 05:29:16;;;;;;;13.07;7.07;;;;;;;-3.67;82.58;99508.91;8362608;28;20060;-73
2022/03/03 05:33:18;;;;;;;11.53;6.13;;;;;;;-3.71;82.55;99507.88;8358814;28;20060;-73
2022/03/03 05:37:24;;;;;;;10.97;6.77;;;;;;;-3.74;83.19;99509.38;8369449;28;20494;-73
2022/03/03 05:41:25;;;;;;;10.23;6.70;;;;;;;-3.74;83.11;99506.84;8364872;28;20555;-73
2022/03/03 05:45:27;;;;;;;9.87;6.50;;;;;;;-3.77;82.56;99502.47;8358488;28;20051;-73
2022/03/03 05:49:30;;;;;;;11.83;6.97;;;;;;;-3.81;82.40;99494.59;8363885;28;20076;-73
2022/03/03 05:53:32;;;;;;;10.60;5.97;;;;;;;-3.80;82.61;99498.88;8362846;28;20309;-73
2022/03/03 05:57:37;;;;;;;10.95;7.63;;;;;;;-3.83;82.91;99496.19;8359519;28;20068;-73
2022/03/03 06:01:40;;;;;;;9.20;6.53;;;;;;;-3.84;83.33;99499.50;8363128;28;20535;-73
2022/03/03 06:05:48;;;;;;;11.83;7.60;;;;;;;-3.96;83.03;99494.66;8345075;28;20041;-74
2022/03/03 06:09:52;;;;;;;12.30;6.60;;;;;;;-3.91;83.50;99488.19;8346903;28;20156;-73
2022/03/03 06:14:05;;;;;;;9.20;6.70;;;;;;;-3.89;83.04;99486.59;8363377;28;20136;-73
2022/03/03 06:18:08;;;;;;;9.38;6.22;;;;;;;-3.88;82.91;99487.47;8366897;28;20352;-73
2022/03/03 06:22:11;;;;;;;10.43;5.97;;;;;;;-3.94;82.48;99500.69;8352482;28;20138;-73
2022/03/03 06:26:18;;;;;;;9.53;6.37;;;;;;;-3.92;83.08;99488.97;8368639;28;20059;-73
2022/03/03 06:30:23;;;;;;;13.97;6.23;;;;;;;-3.84;83.08;99489.38;8362583;28;20041;-73
2022/03/03 06:34:24;;;;;;;9.50;6.77;;;;;;;-3.78;83.41;99487.16;8365081;28;20052;-73
2022/03/03 06:38:27;;;;;;;8.35;4.85;;;;;;;-3.74;83.10;99495.03;8363420;28;20064;-73
2022/03/03 06:42:29;;;;;;;11.15;6.85;;;;;;;-3.72;83.17;99500.19;8364526;28;21517;-73
2022/03/03 06:46:30;;;;;;;9.35;5.85;;;;;;;-3.63;83.44;99498.13;8344417;28;20147;-73
2022/03/03 06:50:38;;;;;;;9.23;6.57;;;;;;;-3.54;83.54;99493.53;8349327;28;20067;-73
2022/03/03 06:54:43;;;;;;;10.63;6.97;;;;;;;-3.44;83.25;99485.59;8367403;28;20056;-73
2022/03/03 06:58:46;;;;;;;9.50;6.60;;;;;;;-3.34;83.59;99494.59;8362970;28;20075;-73
2022/03/03 07:02:48;;;;;;;9.27;6.67;;;;;;;-3.22;83.38;99496.91;8359325;28;20148;-74
2022/03/03 07:06:50;;;;;;;;;;;;;;;-3.09;83.32;99492.50;8360858;28;20082;-73
2022/03/03 07:10:52;;;;;;;11.73;6.43;;;;;;;-2.95;83.17;99494.88;8356819;28;19935;-73
2022/03/03 07:14:54;;;;;;;10.32;7.85;;;;;;;-2.77;83.11;99489.03;8361517;28;20051;-73
2022/03/03 07:18:58;;;;;;;11.13;6.77;;;;;;;-2.60;83.57;99486.47;8360465;28;20048;-73
2022/03/03 07:23:18;;;;;;;14.47;8.57;;;;;;;-2.37;83.57;99485.88;8360688;28;20139;-73
2022/03/03 07:27:23;;;;;;;10.00;6.53;;;;;;;-2.14;82.55;99482.78;8361145;28;21416;-74
2022/03/03 07:31:29;;;;;;;10.10;8.03;;;;;;;-1.86;82.93;99487.47;8360701;28;20515;-74
2022/03/03 07:35:34;;;;;;;12.70;7.63;;;;;;;-1.30;81.58;99485.72;8350044;28;20050;-75
2022/03/03 07:39:44;;;;;;;15.57;7.60;;;;;;;-0.67;79.86;99479.97;8374998;28;20758;-74
2022/03/03 07:43:45;;;;;;;12.50;7.30;;;;;;;-0.24;78.61;99475.72;8362965;28;20171;-73
2022/03/03 07:47:54;;;;;;;13.07;7.27;;;;;;;0.08;77.17;99482.09;8359807;28;20057;-72
2022/03/03 07:51:57;;;;;;;12.17;6.87;;;;;;;0.44;75.33;99474.94;8359354;28;20291;-73
2022/03/03 07:56:04;;;;;;;12.67;7.70;;;;;;;0.80;73.82;99476.25;8375613;28;20049;-75
2022/03/03 08:00:13;;;;;;;12.57;7.43;;;;;;;1.14;72.66;99474.88;8370997;28;20052;-73
2022/03/03 08:04:16;;;;;;;13.23;7.93;;;;;;;1.49;71.63;99486.31;8375265;28;20080;-72
2022/03/03 08:08:22;;;;;;;11.07;7.20;;;;;;;1.85;70.76;99485.75;8374048;28;20057;-71
2022/03/03 08:12:25;;;;;;;11.80;7.20;;;;;;;2.22;69.58;99480.06;8380769;28;20059;-71
2022/03/03 08:16:27;;;;;;;13.15;7.55;;;;;;;2.63;67.83;99466.75;8351626;28;20139;-73
2022/03/03 08:20:33;;;;;;;12.90;8.83;;;;;;;3.04;67.08;99461.91;8369426;28;20052;-72
2022/03/03 08:24:42;;;;;;;15.20;7.47;;;;;;;3.41;65.59;99462.84;8368016;28;20155;-72
2022/03/03 08:28:43;;;;;;;11.87;8.70;;;;;;;3.78;65.25;99474.91;8369206;28;20052;-72
2022/03/03 08:32:58;;;;;;;13.53;8.27;;;;;;;4.16;63.83;99470.66;8369982;28;20056;-72
2022/03/03 08:37:03;;;;;;;14.43;8.30;;;;;;;4.44;62.10;99457.56;8370348;28;20084;-70
2022/03/03 08:41:05;;;;;;;10.83;7.30;;;;;;;4.73;60.62;99454.72;8368774;28;20056;-72
2022/03/03 08:45:10;;;;;;;10.20;7.53;;;;;;;5.03;59.34;99447.59;8348238;28;20056;-72
2022/03/03 08:49:13;;;;;;;11.33;7.67;;;;;;;5.35;58.87;99440.41;8368881;28;20068;-73
2022/03/03 08:53:15;;;;;;;15.13;7.63;;;;;;;5.66;57.29;99438.38;8373439;28;20123;-74
2022/03/03 08:57:16;;;;;;;9.43;7.40;;;;;;;5.92;55.86;99438.78;8365630;28;20052;-73
2022/03/03 09:01:18;;;;;;;9.00;6.70;;;;;;;6.07;54.58;99429.56;8361901;28;20057;-73
2022/03/03 09:05:20;;;;;;;13.20;6.73;;;;;;;6.27;53.75;99431.56;8360313;28;20128;-72
2022/03/03 09:09:21;;;;;;;10.38;6.97;;;;;;;6.48;54.30;99429.28;8366335;28;20155;-72
2022/03/03 09:13:23;;;;;;;9.60;6.47;;;;;;;6.65;52.87;99426.91;8367896;28;20059;-72
2022/03/03 09:17:25;;;;;;;10.60;6.90;;;;;;;6.88;52.55;99438.34;8364666;28;20114;-74
2022/03/03 09:21:28;;;;;;;9.33;6.33;;;;;;;7.12;51.52;99439.44;8365706;28;20168;-73
2022/03/03 09:25:30;;;;;;;8.45;6.50;;;;;;;7.39;51.43;99436.28;8360614;28;20175;-72
2022/03/03 09:29:35;;;;;;;13.13;6.45;;;;;;;7.76;50.74;99435.72;8365576;28;20136;-73
2022/03/03 09:33:36;;;;;;;9.98;7.20;;;;;;;7.87;49.53;99439.22;8350231;28;20061;-74
2022/03/03 09:37:38;;;;;;;10.57;6.82;;;;;;;7.92;49.74;99436.69;8363762;28;20075;-72
2022/03/03 09:41:39;;;;;;;9.60;6.43;;;;;;;8.07;49.46;99438.50;8369930;28;20439;-72
2022/03/03 09:45:41;;;;;;;14.77;7.03;;;;;;;8.30;49.06;99439.53;8361117;28;20055;-71
2022/03/03 09:49:43;;;;;;;13.88;7.45;;;;;;;8.42;48.12;99434.41;8371967;28;20131;-73
2022/03/03 09:53:49;;;;;;;10.27;7.25;;;;;;;8.62;48.09;99438.84;8362293;28;20049;-73
2022/03/03 09:57:51;;;;;;;12.45;7.70;;;;;;;8.65;46.91;99433.69;8366173;28;20056;-73
2022/03/03 10:02:01;;;;;;;20.83;7.63;;;;;;;8.86;46.41;99436.34;8352925;28;20376;-73
2022/03/03 10:06:03;;;;;;;14.25;7.93;;;;;;;8.95;46.59;99433.75;8366176;28;20048;-72
2022/03/03 10:10:14;;;;;;;17.27;8.95;;;;;;;9.16;46.45;99429.53;8371977;28;20139;-74
2022/03/03 10:14:26;;;;;;;11.00;8.00;;;;;;;9.26;46.67;99434.69;8371477;28;20432;-72
2022/03/03 10:18:28;;;;;;;10.13;7.30;;;;;;;9.45;45.63;99433.00;8371297;28;20609;-74
2022/03/03 10:22:58;;;;;;;9.57;7.27;;;;;;;9.78;44.95;99421.75;8376617;28;20048;-73
2022/03/03 10:27:03;;;;;;;10.32;8.30;;;;;;;9.96;43.98;99413.09;8356459;28;20071;-73
2022/03/03 10:31:10;;;;;;;14.98;8.07;;;;;;;10.10;43.45;99410.47;8361089;28;20064;-72
2022/03/03 10:35:14;;;;;;;14.73;9.15;;;;;;;10.21;42.62;99408.75;8361199;28;20052;-71
2022/03/03 10:39:15;;;;;;;12.00;7.68;;;;;;;10.38;43.02;99413.88;8383189;28;20900;-72
2022/03/03 10:43:17;;;;;;;12.05;8.52;;;;;;;10.55;42.78;99412.09;8363905;28;20745;-72
2022/03/03 10:47:24;;;;;;;9.83;8.17;;;;;;;10.73;42.54;99412.00;8363475;28;20057;-73
2022/03/03 10:51:26;;;;;;;10.02;8.20;;;;;;;10.94;41.69;99395.44;8383784;28;20052;-72
2022/03/03 10:55:27;;;;;;;10.40;7.75;;;;;;;11.04;41.55;99401.47;8382540;28;20859;-72
2022/03/03 10:59:29;;;;;;;14.80;9.32;;;;;;;11.10;41.29;99394.47;8361948;28;20651;-71
2022/03/03 11:03:31;;;;;;;9.85;8.32;;;;;;;11.23;40.40;99399.59;8355355;28;20053;-72
2022/03/03 11:07:33;;;;;;;12.70;9.33;;;;;;;11.40;41.30;99389.94;8375854;28;20048;-72
2022/03/03 11:11:36;;;;;;;;;;;;;;;11.55;40.49;99388.97;8380806;28;21335;-72
2022/03/03 11:15:38;;;;;;;9.50;7.30;;;;;;;11.78;39.65;99381.81;8373969;28;19928;-71
2022/03/03 11:19:41;;;;;;;13.30;8.13;;;;;;;12.15;38.88;99378.88;8364172;28;20052;-72
2022/03/03 11:23:57;;;;;;;12.35;8.80;;;;;;;12.31;38.40;99377.81;8363484;28;20058;-72
2022/03/03 11:28:04;;;;;;;10.52;7.95;;;;;;;12.43;38.20;99372.47;8381433;28;20395;-73
2022/03/03 11:32:17;;;;;;;13.27;8.32;;;;;;;12.64;37.70;99366.13;8378148;28;20073;-72
2022/03/03 11:36:25;;;;;;;9.60;7.75;;;;;;;12.63;37.30;99360.06;8367279;28;20059;-74
2022/03/03 11:40:33;;;;;;;9.20;8.23;;;;;;;12.68;36.55;99359.97;8361858;28;20141;-72
2022/03/03 11:44:36;;;;;;;8.98;7.35;;;;;;;12.92;35.99;99359.63;8372648;28;20135;-72
2022/03/03 11:48:38;;;;;;;10.75;7.82;;;;;;;13.13;35.65;99350.66;8369998;28;20796;-72
2022/03/03 11:52:41;;;;;;;9.77;7.88;;;;;;;13.19;35.20;99347.97;8365242;28;20055;-71
2022/03/03 11:57:06;;;;;;;10.25;7.85;;;;;;;13.34;34.84;99339.06;8370489;28;20071;-72
2022/03/03 12:01:11;;;;;;;9.32;7.35;;;;;;;13.42;33.40;99331.09;8367434;28;20075;-73
2022/03/03 12:05:27;;;;;;;10.10;8.13;;;;;;;13.43;33.79;99325.84;8367370;28;20052;-73
2022/03/03 12:09:32;;;;;;;11.43;7.93;;;;;;;13.51;33.81;99321.38;8364469;28;20049;-71
2022/03/03 12:13:43;;;;;;;16.73;8.48;;;;;;;13.55;33.34;99309.13;8363047;28;20509;-72
2022/03/03 12:17:55;;;;;;;9.75;7.25;;;;;;;13.68;33.10;99305.44;8363056;28;20063;-72
2022/03/03 12:22:01;;;;;;;10.93;8.07;;;;;;;13.94;31.83;99304.06;8367051;28;20600;-75
2022/03/03 12:26:04;;;;;;;13.18;8.20;;;;;;;14.02;32.15;99296.97;8368830;28;20730;-72
2022/03/03 12:30:09;;;;;;;10.75;8.20;;;;;;;14.20;31.42;99294.84;8355200;28;20752;-72
2022/03/03 12:34:20;;;;;;;13.10;8.45;;;;;;;14.33;31.94;99291.94;8369584;28;20139;-73
2022/03/03 12:38:21;;;;;;;15.07;7.93;;;;;;;14.28;32.12;99289.44;8369736;28;20191;-72
2022/03/03 12:42:25;;;;;;;8.85;7.95;;;;;;;14.26;30.63;99287.75;8374731;28;20048;-72
2022/03/03 12:46:27;;;;;;;8.68;7.65;;;;;;;14.32;30.62;99275.41;8352492;28;20144;-71
2022/03/03 12:50:30;;;;;;;13.18;8.32;;;;;;;14.34;31.15;99267.53;8374450;28;20137;-71
2022/03/03 12:54:35;;;;;;;12.32;7.82;;;;;;;14.38;30.45;99261.38;8356126;28;20135;-71
2022/03/03 12:58:37;;;;;;;11.13;8.02;;;;;;;14.38;30.56;99257.00;8372679;28;20040;-74
2022/03/03 13:02:59;;;;;;;8.57;7.68;;;;;;;14.55;31.01;99255.81;8371528;28;20067;-72
2022/03/03 13:07:06;;;;;;;10.32;8.27;;;;;;;14.69;30.04;99249.34;8374047;28;20051;-72
2022/03/03 13:11:16;;;;;;;10.68;8.63;;;;;;;14.73;29.70;99252.78;8371023;28;20143;-73
2022/03/03 13:15:36;;;;;;;9.00;8.05;;;;;;;14.75;29.72;99237.91;8366130;28;20526;-72
2022/03/03 13:19:48;;;;;;;9.02;8.10;;;;;;;14.81;29.92;99230.78;8352291;28;20158;-73
2022/03/03 13:23:55;;;;;;;9.45;7.68;;;;;;;14.94;29.35;99238.31;8373556;28;20564;-71
2022/03/03 13:27:58;;;;;;;14.85;8.80;;;;;;;14.90;28.96;99231.44;8378409;28;20127;-71
2022/03/03 13:32:08;;;;;;;12.32;8.25;;;;;;;14.86;29.36;99220.19;8375710;28;20087;-72
2022/03/03 13:36:18;;;;;;;12.27;8.20;;;;;;;14.75;28.28;99215.25;8373813;28;20059;-72
2022/03/03 13:40:23;;;;;;;11.07;8.43;;;;;;;14.67;28.75;99218.94;8380885;28;20076;-71
2022/03/03 13:44:24;;;;;;;11.13;8.18;;;;;;;14.70;28.61;99211.88;8365798;28;20076;-72
2022/03/03 13:48:33;;;;;;;12.87;7.63;;;;;;;14.67;28.20;99204.09;8380618;28;20063;-72
2022/03/03 13:52:38;;;;;;;10.20;7.97;;;;;;;14.74;28.59;99215.28;8375532;28;20052;-72
2022/03/03 13:56:42;;;;;;;9.85;8.48;;;;;;;14.78;27.94;99211.69;8372372;28;20049;-71
2022/03/03 14:00:43;;;;;;;9.20;7.40;;;;;;;14.74;28.11;99203.06;8372151;28;20119;-71
2022/03/03 14:05:03;;;;;;;11.25;7.60;;;;;;;14.90;28.64;99198.34;8361390;28;20132;-73
2022/03/03 14:09:05;;;;;;;12.60;7.72;;;;;;;14.92;28.33;99193.06;8371171;28;20056;-72
2022/03/03 14:13:07;;;;;;;9.88;7.22;;;;;;;14.91;28.01;99189.59;8373268;28;20044;-72
2022/03/03 14:17:08;;;;;;;10.63;7.43;;;;;;;14.96;29.08;99189.47;8379148;28;20148;-73
2022/03/03 14:21:10;;;;;;;14.17;8.20;;;;;;;15.02;28.95;99186.69;8379694;28;20772;-72
2022/03/03 14:25:12;;;;;;;8.00;7.20;;;;;;;15.03;28.68;99183.16;8377665;28;20044;-74
2022/03/03 14:29:14;;;;;;;8.35;7.50;;;;;;;14.95;28.57;99175.53;8381223;28;20045;-72
2022/03/03 14:33:16;;;;;;;9.02;7.35;;;;;;;14.84;28.17;99174.09;8372199;28;20064;-72
2022/03/03 14:37:18;;;;;;;8.60;6.80;;;;;;;14.76;28.35;99179.50;8376338;28;20048;-72
2022/03/03 14:41:19;;;;;;;11.77;7.03;;;;;;;14.67;28.46;99177.13;8382018;28;20054;-73
2022/03/03 14:45:21;;;;;;;8.87;7.50;;;;;;;14.62;29.22;99168.53;8367997;28;20151;-72
2022/03/03 14:49:22;;;;;;;9.23;7.33;;;;;;;14.54;28.38;99171.31;8362509;28;20673;-72
2022/03/03 14:53:26;;;;;;;9.03;7.10;;;;;;;14.54;29.32;99168.69;8362568;28;20044;-73
2022/03/03 14:57:28;;;;;;;13.60;7.03;;;;;;;14.48;28.53;99161.03;8360493;28;20080;-72
2022/03/03 15:01:29;;;;;;;11.30;7.60;;;;;;;14.43;29.06;99166.38;8358707;28;20144;-72
2022/03/03 15:05:31;;;;;;;8.15;7.35;;;;;;;14.43;30.11;99155.03;8370778;28;20056;-72
2022/03/03 15:09:33;;;;;;;9.57;7.28;;;;;;;14.41;29.98;99149.84;8376249;28;20278;-72
2022/03/03 15:13:34;;;;;;;10.05;7.13;;;;;;;14.40;29.28;99148.13;8376450;28;20139;-72
2022/03/03 15:17:37;;;;;;;9.93;7.70;;;;;;;14.36;29.14;99148.22;8368577;28;20096;-72
2022/03/03 15:21:42;;;;;;;9.95;7.32;;;;;;;14.31;29.94;99150.06;8377325;28;20377;-72
2022/03/03 15:25:43;;;;;;;10.02;7.07;;;;;;;14.34;29.83;99157.84;8361856;28;20094;-74
2022/03/03 15:29:45;;;;;;;8.25;6.85;;;;;;;14.37;29.85;99156.03;8366113;28;20048;-72
2022/03/03 15:38:06;;;;;;;6.65;5.95;;;;;;;14.41;30.50;99151.59;8361288;28;20159;-72
2022/03/03 15:42:09;;;;;;;14.63;6.53;;;;;;;14.41;30.27;99151.59;8357492;28;20053;-73
2022/03/03 15:46:11;;;;;;;7.32;5.75;;;;;;;14.44;30.36;99162.84;8361281;28;20088;-72
2022/03/03 15:50:13;;;;;;;7.87;7.03;;;;;;;14.56;31.21;99164.31;8369021;28;20079;-73
2022/03/03 15:54:15;;;;;;;11.05;7.57;;;;;;;14.70;31.06;99164.81;8372102;28;20143;-71
2022/03/03 15:58:18;;;;;;;9.30;6.15;;;;;;;15.01;29.84;99156.22;8365667;28;20669;-72
2022/03/03 16:02:20;;;;;;;10.00;7.57;;;;;;;18.22;26.20;99162.41;8358301;28;20696;-72
2022/03/03 16:06:22;;;;;;;7.63;6.95;;;;;;;19.61;23.79;99160.97;8359689;28;20040;-71
2022/03/03 16:10:23;;;;;;;15.00;9.40;;;;;;;19.00;23.41;99168.84;8373138;28;20706;-71
2022/03/03 16:14:25;;;;;;;12.20;10.50;;;;;;;18.01;24.58;99164.97;8371537;28;20090;-71
2022/03/03 16:18:26;;;;;;;8.73;7.83;;;;;;;18.87;23.80;99157.16;8367771;28;20289;-72
2022/03/03 16:22:29;;;;;;;9.57;8.57;;;;;;;19.40;23.30;99161.91;8359472;28;20048;-72
2022/03/03 16:26:31;;;;;;;10.37;8.00;;;;;;;17.41;25.22;99168.88;8371976;28;20135;-72
2022/03/03 16:30:33;;;;;;;8.20;7.32;;;;;;;15.62;26.64;99171.16;8369296;28;20052;-72
2022/03/03 16:34:43;;;;;;;7.07;6.47;;;;;;;14.48;28.95;99180.16;8375196;28;20117;-72
2022/03/03 16:38:44;;;;;;;7.72;5.75;;;;;;;13.70;29.59;99177.53;8354996;28;20044;-72
2022/03/03 16:42:46;;;;;;;6.55;5.95;;;;;;;13.12;31.17;99184.69;8368844;28;20372;-72
2022/03/03 16:46:48;;;;;;;7.47;6.35;;;;;;;12.67;31.78;99187.19;8364953;28;20053;-73
2022/03/03 16:50:50;;;;;;;8.43;6.18;;;;;;;12.28;31.97;99188.66;8368726;28;20071;-70
2022/03/03 16:54:52;;;;;;;7.38;6.15;;;;;;;11.92;32.93;99195.25;8369737;28;20045;-74
2022/03/03 16:58:53;;;;;;;7.40;6.10;;;;;;;11.66;34.08;99200.72;8368673;28;20049;-72
2022/03/03 17:02:55;;;;;;;6.85;5.57;;;;;;;11.42;34.10;99201.00;8348243;28;20725;-72
2022/03/03 17:06:56;;;;;;;7.82;5.70;;;;;;;11.20;34.19;99206.44;8365782;28;20049;-73
2022/03/03 17:10:58;;;;;;;7.72;6.43;;;;;;;10.99;35.11;99208.38;8365549;28;20144;-72
2022/03/03 17:15:00;;;;;;;8.48;5.60;;;;;;;10.79;35.02;99212.03;8358603;28;20135;-72
2022/03/03 17:19:03;;;;;;;7.50;5.93;;;;;;;10.62;35.48;99213.88;8367807;28;20062;-72
2022/03/03 17:23:05;;;;;;;7.80;6.03;;;;;;;10.44;34.45;99224.41;8355620;28;20056;-71
2022/03/03 17:27:06;;;;;;;10.43;6.00;;;;;;;10.26;34.79;99228.81;8366847;28;20500;-72
2022/03/03 17:31:08;;;;;;;8.48;6.35;;;;;;;10.00;35.83;99234.09;8363541;28;20062;-72
2022/03/03 17:35:10;;;;;;;7.43;6.07;;;;;;;9.79;36.42;99235.94;8376774;28;20061;-71
2022/03/03 17:39:12;;;;;;;11.00;6.13;;;;;;;9.68;36.71;99243.72;8358237;28;20455;-72
2022/03/03 17:43:20;;;;;;;8.48;5.60;;;;;;;9.45;37.70;99241.22;8372282;28;20049;-72
2022/03/03 17:47:22;;;;;;;6.35;5.20;;;;;;;9.27;38.40;99244.69;8365270;28;20151;-71
2022/03/03 17:51:24;;;;;;;;;;;;;;;9.05;39.33;99251.63;8364671;28;20052;-72
2022/03/03 17:55:25;;;;;;;9.65;5.40;;;;;;;8.86;39.08;99246.47;8362877;28;19924;-72
2022/03/03 17:59:27;;;;;;;7.72;5.78;;;;;;;8.67;39.52;99240.44;8353453;28;20680;-72
2022/03/03 18:03:28;;;;;;;8.95;5.40;;;;;;;8.49;42.57;99254.19;8349533;28;20056;-72
2022/03/03 18:07:31;;;;;;;6.00;4.82;;;;;;;8.21;43.24;99254.94;8350646;28;20110;-72
2022/03/03 18:11:33;;;;;;;9.13;5.78;;;;;;;7.95;43.84;99250.56;8368661;28;20151;-72
2022/03/03 18:15:35;;;;;;;16.65;6.35;;;;;;;7.74;44.29;99251.34;8363435;28;20089;-71
2022/03/03 18:19:37;;;;;;;11.05;5.82;;;;;;;7.63;43.80;99252.16;8373234;28;20037;-72
2022/03/03 18:23:38;;;;;;;13.05;5.57;;;;;;;7.42;46.45;99261.50;8376722;28;20056;-71
2022/03/03 18:27:40;;;;;;;9.17;5.40;;;;;;;7.19;45.68;99265.66;8360729;28;20135;-72
2022/03/03 18:31:41;;;;;;;7.20;5.13;;;;;;;7.11;44.58;99262.16;8373169;28;20301;-72
2022/03/03 18:35:46;;;;;;;6.70;5.37;;;;;;;6.92;46.24;99263.72;8360849;28;20789;-72
2022/03/03 18:39:47;;;;;;;7.60;5.65;;;;;;;6.80;46.32;99264.47;8374094;28;20045;-71
2022/03/03 18:43:49;;;;;;;7.93;5.40;;;;;;;6.73;44.77;99267.00;8373660;28;20091;-72
2022/03/03 18:47:50;;;;;;;7.20;5.47;;;;;;;6.62;45.29;99262.59;8372695;28;20074;-73
2022/03/03 18:51:52;;;;;;;12.80;5.90;;;;;;;6.43;48.42;99268.44;8358653;28;20135;-73
2022/03/03 18:55:54;;;;;;;6.25;5.28;;;;;;;6.28;50.08;99273.41;8373129;28;20044;-73
2022/03/03 18:59:55;;;;;;;6.43;5.70;;;;;;;6.03;52.17;99274.88;8358303;28;20052;-73
2022/03/03 19:03:57;;;;;;;7.77;5.57;;;;;;;5.78;52.98;99288.28;8367917;28;20088;-73
2022/03/03 19:07:59;;;;;;;6.85;5.60;;;;;;;5.63;54.22;99281.22;8374575;28;20076;-75